^^
Grace C. Lehan Memorial Weather Station Historical Data
Daily Summary for August 15, 2021 Units:  English    Metric   Both
Daily Weekly Monthly Yearly
  High: Low: Average:
Temperature: 84.1 °F 62.5 °F 74.1 °F
Dew Point: 61.6 °F 56.6 °F 58.8 °F
Humidity: 86.5% 43.8% 60%
Wind Speed: 3.6mph 0mph 0.5mph
Wind Gust: 11mph - -
Wind- - South
Pressure: 30.19 in 30.10 in -
Precipitation: 0.00 in    
 
 
Tabular Data for August 15, 2021
Time Temperature Dew Point Pressure Wind Wind Speed Wind Gust Humidity Rainfall Rate (Hourly) solar
00:00 72.1 °F 58.4 °F 30.10 in NW 1 mph 6 mph 62% 0.00 in 0 W/m2
00:09 72.1 °F 58 °F 30.11 in NW 0.5 mph 5 mph 61.2% 0.00 in 0 W/m2
00:14 72 °F 58 °F 30.11 in NW 0.7 mph 6 mph 61.3% 0.00 in 0 W/m2
00:19 71.9 °F 58 °F 30.11 in NNW 0.1 mph 6 mph 61.5% 0.00 in 0 W/m2
00:24 71.9 °F 58.2 °F 30.11 in NW 0.7 mph 6 mph 62% 0.00 in 0 W/m2
00:29 71.8 °F 58.1 °F 30.11 in West 0.4 mph 6 mph 61.9% 0.00 in 0 W/m2
00:34 71.9 °F 57.9 °F 30.11 in NW 1 mph 6 mph 61.4% 0.00 in 0 W/m2
00:39 71.9 °F 57.7 °F 30.10 in NNW 0.6 mph 6 mph 61% 0.00 in 0 W/m2
00:44 71.9 °F 57.7 °F 30.10 in NNW 0.4 mph 6 mph 61% 0.00 in 0 W/m2
00:49 71.9 °F 57.7 °F 30.10 in NNW 0.1 mph 6 mph 61% 0.00 in 0 W/m2
00:54 71.9 °F 57.7 °F 30.11 in NNW 0.9 mph 6 mph 61% 0.00 in 0 W/m2
00:59 71.9 °F 57.7 °F 30.11 in Calm   6 mph 61% 0.00 in 0 W/m2
01:04 71.8 °F 57.7 °F 30.11 in Calm   6 mph 61.2% 0.00 in 0 W/m2
01:09 71.7 °F 57.6 °F 30.11 in North 0.1 mph 1 mph 61.2% 0.00 in 0 W/m2
01:14 71.6 °F 57.6 °F 30.11 in NNW 0.3 mph 5 mph 61.4% 0.00 in 0 W/m2
01:19 71.5 °F 57.8 °F 30.11 in Calm   5 mph 61.9% 0.00 in 0 W/m2
01:24 71.4 °F 57.7 °F 30.11 in NNW 0.1 mph 5 mph 62% 0.00 in 0 W/m2
01:29 71.2 °F 57.6 °F 30.11 in NNW 0.3 mph 5 mph 62% 0.00 in 0 W/m2
01:34 71.1 °F 57.5 °F 30.11 in NNW 0.2 mph 5 mph 62% 0.00 in 0 W/m2
01:39 71 °F 57.6 °F 30.10 in NW 1 mph 6 mph 62.6% 0.00 in 0 W/m2
01:44 70.9 °F 57.7 °F 30.10 in NW 0.5 mph 6 mph 63% 0.00 in 0 W/m2
01:49 70.7 °F 57.6 °F 30.10 in NW 0.1 mph 6 mph 63.2% 0.00 in 0 W/m2
01:54 70.6 °F 57.8 °F 30.11 in Calm   6 mph 64% 0.00 in 0 W/m2
01:59 70.5 °F 57.7 °F 30.11 in Calm   6 mph 64% 0.00 in 0 W/m2
02:04 70.3 °F 57.7 °F 30.11 in Calm   6 mph 64.2% 0.00 in 0 W/m2
02:09 70.2 °F 57.6 °F 30.11 in Calm     64.4% 0.00 in 0 W/m2
02:14 70 °F 57.7 °F 30.11 in Calm     65% 0.00 in 0 W/m2
02:19 69.8 °F 57.6 °F 30.11 in Calm     65% 0.00 in 0 W/m2
02:24 69.7 °F 58 °F 30.11 in Calm     66.3% 0.00 in 0 W/m2
02:29 69.5 °F 58.3 °F 30.11 in Calm     67.3% 0.00 in 0 W/m2
02:34 69.4 °F 58 °F 30.11 in Calm     67.1% 0.00 in 0 W/m2
02:39 69.2 °F 58.2 °F 30.12 in Calm     67.9% 0.00 in 0 W/m2
02:44 69 °F 58.1 °F 30.11 in Calm     68.1% 0.00 in 0 W/m2
02:49 68.8 °F 57.9 °F 30.11 in Calm     68.2% 0.00 in 0 W/m2
02:54 68.6 °F 58.2 °F 30.11 in Calm     69.4% 0.00 in 0 W/m2
02:59 68.4 °F 58.3 °F 30.11 in Calm     70.2% 0.00 in 0 W/m2
03:04 68.1 °F 58.4 °F 30.12 in Calm     71% 0.00 in 0 W/m2
03:09 67.9 °F 58.2 °F 30.12 in Calm     71% 0.00 in 0 W/m2
03:14 67.7 °F 58.2 °F 30.12 in Calm     71.5% 0.00 in 0 W/m2
03:19 67.6 °F 58.1 °F 30.12 in Calm     71.7% 0.00 in 0 W/m2
03:24 67.4 °F 58 °F 30.12 in Calm     72% 0.00 in 0 W/m2
03:29 67.2 °F 58.2 °F 30.12 in Calm     72.9% 0.00 in 0 W/m2
03:34 67 °F 58.1 °F 30.12 in Calm     73% 0.00 in 0 W/m2
03:39 66.8 °F 57.9 °F 30.12 in Calm     73% 0.00 in 0 W/m2
03:44 66.7 °F 57.7 °F 30.12 in Calm     73% 0.00 in 0 W/m2
03:49 66.5 °F 57.7 °F 30.12 in Calm     73.3% 0.00 in 0 W/m2
03:54 66.3 °F 58 °F 30.12 in Calm     74.6% 0.00 in 0 W/m2
03:59 66.2 °F 58.1 °F 30.12 in Calm     75.3% 0.00 in 0 W/m2
04:00 66.1 °F 58.3 °F 30.12 in Calm     76% 0.00 in 0 W/m2
04:09 65.7 °F 58.2 °F 30.12 in Calm     76.8% 0.00 in 0 W/m2
04:14 65.5 °F 58.1 °F 30.13 in Calm     77% 0.00 in 0 W/m2
04:19 65.3 °F 58 °F 30.12 in Calm     77.3% 0.00 in 0 W/m2
04:24 65.1 °F 58.1 °F 30.13 in Calm     78% 0.00 in 0 W/m2
04:29 64.9 °F 57.9 °F 30.13 in Calm     78% 0.00 in 0 W/m2
04:34 64.8 °F 57.8 °F 30.13 in Calm     78% 0.00 in 0 W/m2
04:39 64.6 °F 58.1 °F 30.13 in Calm     79.2% 0.00 in 0 W/m2
04:44 64.4 °F 58.1 °F 30.13 in Calm     80% 0.00 in 0 W/m2
04:49 64.2 °F 58 °F 30.13 in Calm     80% 0.00 in 0 W/m2
04:54 64.1 °F 58.1 °F 30.13 in Calm     80.8% 0.00 in 0 W/m2
04:59 63.9 °F 58 °F 30.13 in Calm     81% 0.00 in 0 W/m2
05:04 63.8 °F 57.8 °F 30.13 in Calm     81% 0.00 in 0 W/m2
05:09 63.6 °F 58 °F 30.13 in Calm     82% 0.00 in 0 W/m2
05:14 63.5 °F 57.9 °F 30.13 in Calm     82% 0.00 in 0 W/m2
05:19 63.4 °F 57.8 °F 30.13 in Calm     82% 0.00 in 0 W/m2
05:24 63.3 °F 57.7 °F 30.14 in Calm     82% 0.00 in 0 W/m2
05:29 63.3 °F 57.7 °F 30.14 in Calm     82% 0.00 in 0 W/m2
05:34 63.3 °F 57.7 °F 30.14 in Calm     82% 0.00 in 0 W/m2
05:39 63.2 °F 57.6 °F 30.14 in Calm     82% 0.00 in 0 W/m2
05:44 63.2 °F 57.6 °F 30.15 in Calm     82% 0.00 in 0 W/m2
05:49 63.1 °F 57.5 °F 30.15 in Calm     82% 0.00 in 0 W/m2
05:54 63 °F 57.5 °F 30.15 in Calm     82% 0.00 in 0 W/m2
05:59 63 °F 57.5 °F 30.15 in Calm     82.3% 0.00 in 0 W/m2
06:04 62.9 °F 57.7 °F 30.16 in Calm     83% 0.00 in 5 W/m2
06:09 62.9 °F 57.8 °F 30.16 in Calm     83.4% 0.00 in 7 W/m2
06:14 62.8 °F 57.6 °F 30.16 in Calm     83.1% 0.00 in 11 W/m2
06:19 62.7 °F 57.4 °F 30.16 in Calm     83% 0.00 in 16 W/m2
06:24 62.6 °F 57.6 °F 30.16 in Calm     83.9% 0.00 in 21 W/m2
06:29 62.5 °F 57.6 °F 30.16 in Calm     84% 0.00 in 25 W/m2
06:34 62.5 °F 57.8 °F 30.16 in Calm     84.6% 0.00 in 26 W/m2
06:39 62.6 °F 58 °F 30.17 in Calm     85% 0.00 in 32 W/m2
06:44 62.6 °F 58 °F 30.17 in Calm     85% 0.00 in 77 W/m2
06:49 62.6 °F 58.3 °F 30.17 in Calm     85.7% 0.00 in 114 W/m2
06:54 62.9 °F 58.7 °F 30.17 in Calm     86% 0.00 in 149 W/m2
06:59 63.5 °F 59.4 °F 30.17 in Calm     86.5% 0.00 in 149 W/m2
07:04 64.2 °F 59.8 °F 30.17 in NW 0.1 mph 2 mph 85.5% 0.00 in 141 W/m2
07:09 65.1 °F 60.3 °F 30.17 in Calm   2 mph 84.2% 0.00 in 237 W/m2
07:14 66.1 °F 60.5 °F 30.17 in Calm   2 mph 82.2% 0.00 in 250 W/m2
07:19 67 °F 60.4 °F 30.17 in Calm   2 mph 79.4% 0.00 in 232 W/m2
07:24 68 °F 60.7 °F 30.17 in NNW 0.1 mph 3 mph 77.5% 0.00 in 206 W/m2
07:29 68.9 °F 60.6 °F 30.17 in NNW 0.1 mph 3 mph 74.8% 0.00 in 229 W/m2
07:34 69.7 °F 60.6 °F 30.17 in NNW 0.3 mph 6 mph 72.9% 0.00 in 244 W/m2
07:39 70.3 °F 60.3 °F 30.17 in NNE 0.1 mph 6 mph 70.5% 0.00 in 264 W/m2
07:44 70.6 °F 60.2 °F 30.17 in Calm   6 mph 69.5% 0.00 in 283 W/m2
07:49 70.7 °F 59.8 °F 30.17 in ENE 0.2 mph 6 mph 68.4% 0.00 in 304 W/m2
07:54 70.9 °F 59.6 °F 30.17 in NNW 0.2 mph 6 mph 67.3% 0.00 in 322 W/m2
07:59 71.3 °F 59.9 °F 30.17 in NW 0.8 mph 10 mph 67.4% 0.00 in 338 W/m2
08:09 71.9 °F 59.7 °F 30.17 in NNE 0.7 mph 6 mph 65.5% 0.00 in 373 W/m2
08:14 72.1 °F 59.1 °F 30.17 in NE 0.3 mph 6 mph 63.6% 0.00 in 397 W/m2
08:19 72.2 °F 59.4 °F 30.17 in NE 0.5 mph 6 mph 64.2% 0.00 in 410 W/m2
08:24 72.2 °F 58.9 °F 30.18 in ENE 0.5 mph 6 mph 63.1% 0.00 in 429 W/m2
08:29 72.3 °F 59.1 °F 30.18 in ENE 0.5 mph 6 mph 63.2% 0.00 in 445 W/m2
08:34 72.6 °F 60.1 °F 30.18 in NNE 0.5 mph 6 mph 64.7% 0.00 in 443 W/m2
08:39 73.1 °F 59.6 °F 30.18 in ENE 1.2 mph 5 mph 62.6% 0.00 in 480 W/m2
08:44 73.2 °F 59.7 °F 30.18 in NE 0.7 mph 5 mph 62.6% 0.00 in 504 W/m2
08:49 73.6 °F 60.2 °F 30.18 in NE 1.4 mph 10 mph 63% 0.00 in 504 W/m2
08:54 74 °F 59.7 °F 30.18 in NE 0.8 mph 10 mph 61% 0.00 in 527 W/m2
08:59 74.1 °F 58.7 °F 30.18 in ENE 2.2 mph 10 mph 58.7% 0.00 in 554 W/m2
09:04 73.8 °F 58.9 °F 30.18 in NNE 1.4 mph 10 mph 59.6% 0.00 in 557 W/m2
09:09 74.1 °F 58.5 °F 30.18 in ENE 1.6 mph 7 mph 58.3% 0.00 in 536 W/m2
09:14 74.2 °F 58.6 °F 30.18 in NNE 1.5 mph 7 mph 58.1% 0.00 in 536 W/m2
09:19 74.4 °F 58.6 °F 30.18 in NE 2.1 mph 7 mph 57.8% 0.00 in 524 W/m2
09:24 75 °F 59.6 °F 30.17 in ENE 1 mph 7 mph 58.9% 0.00 in 606 W/m2
09:29 75.4 °F 59.2 °F 30.17 in NNW 1.4 mph 9 mph 57.1% 0.00 in 617 W/m2
09:34 75.8 °F 59.1 °F 30.18 in NNW 1.1 mph 9 mph 56.3% 0.00 in 640 W/m2
09:39 75.8 °F 59.4 °F 30.18 in ENE 0.7 mph 5 mph 56.8% 0.00 in 589 W/m2
09:44 75.8 °F 59.1 °F 30.18 in NNE 0.8 mph 5 mph 56.4% 0.00 in 548 W/m2
09:49 75.5 °F 59.2 °F 30.18 in NE 0.2 mph 5 mph 56.9% 0.00 in 671 W/m2
09:54 75.8 °F 59.8 °F 30.18 in NNE 0.4 mph 5 mph 57.6% 0.00 in 668 W/m2
09:59 76.4 °F 60.5 °F 30.18 in ENE 1.6 mph 7 mph 58% 0.00 in 712 W/m2
10:04 76.6 °F 58.9 °F 30.18 in ENE 2.3 mph 10 mph 54.4% 0.00 in 715 W/m2
10:09 76.5 °F 59.4 °F 30.18 in ENE 1.4 mph 10 mph 55.4% 0.00 in 726 W/m2
10:14 76.9 °F 60.3 °F 30.18 in NNW 0.6 mph 10 mph 56.6% 0.00 in 768 W/m2
10:19 77.5 °F 60.3 °F 30.18 in NNW 1.7 mph 11 mph 55.4% 0.00 in 782 W/m2
10:24 78.1 °F 60.3 °F 30.18 in North 0.4 mph 11 mph 54.2% 0.00 in 777 W/m2
10:29 78.5 °F 60.1 °F 30.18 in NE 1.5 mph 11 mph 53.1% 0.00 in 770 W/m2
10:34 78.5 °F 60 °F 30.19 in NNE 0.6 mph 11 mph 53.1% 0.00 in 786 W/m2
10:39 78.5 °F 58.9 °F 30.19 in NNE 2.5 mph 11 mph 50.9% 0.00 in 763 W/m2
10:44 78.6 °F 59.2 °F 30.19 in NW 1.3 mph 11 mph 51.4% 0.00 in 809 W/m2
10:49 78.9 °F 58.6 °F 30.19 in NNW 1.5 mph 11 mph 49.8% 0.00 in 784 W/m2
10:54 79.3 °F 59 °F 30.19 in NNE 1.3 mph 11 mph 50% 0.00 in 846 W/m2
10:59 79.8 °F 59.4 °F 30.18 in ENE 1.2 mph 11 mph 49.8% 0.00 in 891 W/m2
11:04 80 °F 58.9 °F 30.18 in NE 1.1 mph 11 mph 48.7% 0.00 in 816 W/m2
11:09 79.9 °F 58.5 °F 30.18 in NNW 2.2 mph 9 mph 48.1% 0.00 in 761 W/m2
11:14 79.8 °F 58.7 °F 30.18 in NW 0.5 mph 9 mph 48.5% 0.00 in 814 W/m2
11:19 79.8 °F 58.6 °F 30.18 in NNW 0.8 mph 9 mph 48.5% 0.00 in 891 W/m2
11:24 79.5 °F 57.7 °F 30.18 in ENE 3.6 mph 9 mph 47.2% 0.00 in 902 W/m2
11:29 79.3 °F 59.4 °F 30.18 in NNE 1 mph 9 mph 50.6% 0.00 in 928 W/m2
11:34 79.8 °F 59.5 °F 30.18 in NE 0.3 mph 9 mph 50% 0.00 in 937 W/m2
11:39 80.6 °F 60.6 °F 30.18 in NE 1.1 mph 5 mph 50.5% 0.00 in 942 W/m2
11:44 81.4 °F 60.1 °F 30.17 in North 0.1 mph 5 mph 48.5% 0.00 in 932 W/m2
11:49 81.8 °F 59 °F 30.18 in NE 2.1 mph 9 mph 46% 0.00 in 951 W/m2
11:54 81.4 °F 58 °F 30.18 in NNW 1.4 mph 9 mph 45% 0.00 in 960 W/m2
11:59 80.9 °F 57.5 °F 30.18 in ENE 1.3 mph 9 mph 44.9% 0.00 in 1000 W/m2
12:00 80.5 °F 59.6 °F 30.18 in Calm   9 mph 49% 0.00 in 1000 W/m2
12:09 79.9 °F 57 °F 30.18 in NE 0.4 mph 4 mph 45.5% 0.00 in 735 W/m2
12:14 79.5 °F 57.4 °F 30.17 in NNE 0.6 mph 6 mph 46.8% 0.00 in 993 W/m2
12:19 79.4 °F 56.6 °F 30.17 in ENE 1.7 mph 6 mph 45.6% 0.00 in 993 W/m2
12:24 79.2 °F 57.2 °F 30.17 in East 1.4 mph 6 mph 47% 0.00 in 925 W/m2
12:29 78.9 °F 56.6 °F 30.17 in ESE 0.5 mph 6 mph 46.3% 0.00 in 998 W/m2
12:34 79 °F 57.8 °F 30.17 in East 0.3 mph 6 mph 48.1% 0.00 in 997 W/m2
12:39 79.6 °F 58 °F 30.17 in SSE 1.6 mph 7 mph 47.6% 0.00 in 990 W/m2
12:44 80.1 °F 57.7 °F 30.17 in NW 1.2 mph 7 mph 46.5% 0.00 in 935 W/m2
12:49 80.1 °F 57.7 °F 30.17 in NNW 2.2 mph 7 mph 46.4% 0.00 in 984 W/m2
12:54 80.1 °F 57.3 °F 30.17 in NW 2.5 mph 9 mph 45.6% 0.00 in 974 W/m2
12:59 80.4 °F 58.9 °F 30.17 in WNW 1.4 mph 11 mph 47.9% 0.00 in 974 W/m2
13:04 80.7 °F 57.6 °F 30.17 in NW 2.7 mph 11 mph 45.3% 0.00 in 991 W/m2
13:09 80.5 °F 57.3 °F 30.17 in NNE 1.5 mph 11 mph 45% 0.00 in 1004 W/m2
13:14 80.5 °F 56.7 °F 30.17 in NE 1.3 mph 11 mph 44.2% 0.00 in 969 W/m2
13:19 80.7 °F 56.8 °F 30.17 in NNE 1.4 mph 11 mph 44.1% 0.00 in 976 W/m2
13:24 80.7 °F 57.2 °F 30.17 in North 1.1 mph 11 mph 44.7% 0.00 in 991 W/m2
13:29 80.8 °F 56.7 °F 30.17 in NE 1.1 mph 11 mph 43.8% 0.00 in 947 W/m2
13:34 80.6 °F 57.1 °F 30.16 in NE 0.6 mph 11 mph 44.7% 0.00 in 962 W/m2
13:39 80.5 °F 57.4 °F 30.16 in ENE 1.8 mph 6 mph 45.2% 0.00 in 969 W/m2
13:44 80.5 °F 57 °F 30.16 in ENE 1.9 mph 6 mph 44.6% 0.00 in 956 W/m2
13:49 80.4 °F 58 °F 30.16 in North 1.1 mph 6 mph 46.5% 0.00 in 954 W/m2
13:54 80.8 °F 58.2 °F 30.16 in NW 0.4 mph 6 mph 46.3% 0.00 in 954 W/m2
13:59 81.2 °F 59.4 °F 30.15 in NE 1.1 mph 6 mph 47.6% 0.00 in 947 W/m2
14:04 81.5 °F 58 °F 30.15 in ENE 0.8 mph 6 mph 44.8% 0.00 in 930 W/m2
14:09 81.4 °F 58.3 °F 30.15 in NNE 0.6 mph 5 mph 45.5% 0.00 in 930 W/m2
14:14 81.3 °F 58.8 °F 30.15 in WNW 3.1 mph 7 mph 46.4% 0.00 in 926 W/m2
14:19 81.5 °F 58.8 °F 30.15 in NW 0.1 mph 7 mph 46.2% 0.00 in 923 W/m2
14:24 81.6 °F 58.8 °F 30.15 in NW 0.1 mph 7 mph 46% 0.00 in 923 W/m2
14:29 81.8 °F 59.7 °F 30.15 in NW 0.7 mph 7 mph 47.1% 0.00 in 949 W/m2
14:34 82.4 °F 60.9 °F 30.15 in NW 1.3 mph 7 mph 48.3% 0.00 in 951 W/m2
14:39 82.8 °F 59.9 °F 30.14 in NW 1.4 mph 9 mph 46% 0.00 in 896 W/m2
14:44 82.9 °F 60.5 °F 30.14 in NNE 0.7 mph 9 mph 46.8% 0.00 in 879 W/m2
14:49 83 °F 60.4 °F 30.14 in NW 1 mph 9 mph 46.6% 0.00 in 875 W/m2
14:54 82.6 °F 60.1 °F 30.14 in NE 1 mph 9 mph 46.5% 0.00 in 854 W/m2
14:59 82.5 °F 59.7 °F 30.14 in NNE 0.9 mph 9 mph 46.1% 0.00 in 851 W/m2
15:04 82.2 °F 58.7 °F 30.14 in East 0.9 mph 9 mph 44.9% 0.00 in 835 W/m2
15:09 81.7 °F 59.3 °F 30.14 in East 0.7 mph 5 mph 46.7% 0.00 in 823 W/m2
15:14 81.6 °F 60.5 °F 30.13 in NE 0.9 mph 5 mph 48.7% 0.00 in 826 W/m2
15:19 81.9 °F 59.7 °F 30.13 in Calm   5 mph 47.1% 0.00 in 821 W/m2
15:24 82.1 °F 60.5 °F 30.13 in NE 0.2 mph 5 mph 48.1% 0.00 in 809 W/m2
15:29 82.4 °F 59.6 °F 30.13 in ENE 0.6 mph 5 mph 46% 0.00 in 800 W/m2
15:34 82.8 °F 61 °F 30.13 in NE 1.1 mph 5 mph 47.8% 0.00 in 789 W/m2
15:39 83.2 °F 61.6 °F 30.12 in NNW 1.7 mph 7 mph 48.3% 0.00 in 772 W/m2
15:44 83.5 °F 61.2 °F 30.13 in West 1.5 mph 7 mph 47% 0.00 in 744 W/m2
15:49 83.7 °F 59.9 °F 30.12 in Calm   7 mph 44.7% 0.00 in 744 W/m2
15:54 83.9 °F 60.2 °F 30.12 in West 1 mph 7 mph 44.9% 0.00 in 737 W/m2
15:59 84.1 °F 60.3 °F 30.12 in NW 2.9 mph 7 mph 44.7% 0.00 in 710 W/m2
16:00 84.1 °F 59.9 °F 30.12 in ENE 2.5 mph 7 mph 44% 0.00 in 570 W/m2
16:09 83.7 °F 59.7 °F 30.12 in Calm   1 mph 44.4% 0.00 in 693 W/m2
16:14 83.4 °F 59.8 °F 30.12 in ENE 0.4 mph 3 mph 45% 0.00 in 679 W/m2
16:19 83.2 °F 60.2 °F 30.12 in ENE 0.3 mph 3 mph 45.8% 0.00 in 54 W/m2
16:24 83 °F 61 °F 30.12 in Calm   3 mph 47.5% 0.00 in 76 W/m2
16:29 82.9 °F 61.2 °F 30.12 in NE 0.8 mph 4 mph 48% 0.00 in 84 W/m2
16:34 82.8 °F 61 °F 30.11 in NW 1.3 mph 5 mph 47.8% 0.00 in 76 W/m2
16:39 82.6 °F 61 °F 30.11 in WNW 0.5 mph 5 mph 48% 0.00 in 72 W/m2
16:44 82.5 °F 60.3 °F 30.11 in North 1 mph 5 mph 47% 0.00 in 62 W/m2
16:49 82.3 °F 60.6 °F 30.11 in North 1.6 mph 5 mph 48% 0.00 in 53 W/m2
16:54 81.8 °F 59.3 °F 30.11 in NNE 0.6 mph 5 mph 46.5% 0.00 in 44 W/m2
16:59 81.5 °F 60.1 °F 30.11 in NNE 0.3 mph 5 mph 48.2% 0.00 in 46 W/m2
17:04 81.4 °F 59.6 °F 30.11 in Calm   5 mph 47.5% 0.00 in 47 W/m2
17:09 81.4 °F 59.6 °F 30.11 in North 1.2 mph 5 mph 47.6% 0.00 in 46 W/m2
17:14 81.4 °F 60.7 °F 30.11 in NNW 1.3 mph 5 mph 49.5% 0.00 in 44 W/m2
17:19 81.3 °F 60.3 °F 30.11 in NNW 1.9 mph 7 mph 48.8% 0.00 in 44 W/m2
17:24 81.2 °F 60.3 °F 30.11 in NW 1.1 mph 7 mph 49.1% 0.00 in 40 W/m2
17:29 81.2 °F 59.3 °F 30.11 in NW 1.5 mph 7 mph 47.5% 0.00 in 40 W/m2
17:34 81.1 °F 58.5 °F 30.11 in NW 0.3 mph 7 mph 46.2% 0.00 in 37 W/m2
17:39 81 °F 59.6 °F 30.11 in NW 0.7 mph 4 mph 48.2% 0.00 in 35 W/m2
17:44 81 °F 58.9 °F 30.11 in NW 0.8 mph 4 mph 47.2% 0.00 in 33 W/m2
17:49 80.9 °F 59.2 °F 30.11 in NW 0.3 mph 4 mph 47.7% 0.00 in 32 W/m2
17:54 80.8 °F 59.1 °F 30.10 in NNW 0.9 mph 4 mph 47.7% 0.00 in 32 W/m2
17:59 80.7 °F 59.4 °F 30.10 in North 0.1 mph 4 mph 48.4% 0.00 in 28 W/m2
18:04 80.6 °F 59.9 °F 30.11 in North 0.7 mph 5 mph 49.4% 0.00 in 28 W/m2
18:09 80.5 °F 60.2 °F 30.11 in North 0.8 mph 5 mph 50% 0.00 in 26 W/m2
18:14 80.4 °F 60.1 °F 30.11 in North 0.1 mph 5 mph 50% 0.00 in 23 W/m2
18:19 80.3 °F 59.5 °F 30.11 in Calm   5 mph 49.3% 0.00 in 25 W/m2
18:24 80.1 °F 59 °F 30.10 in Calm   5 mph 48.5% 0.00 in 35 W/m2
18:29 80 °F 58.6 °F 30.11 in Calm   5 mph 48.1% 0.00 in 39 W/m2
18:34 80 °F 59.5 °F 30.11 in North 0.3 mph 5 mph 49.6% 0.00 in 37 W/m2
18:39 79.9 °F 59.9 °F 30.11 in North 0.7 mph 3 mph 50.4% 0.00 in 35 W/m2
18:44 79.8 °F 60.2 °F 30.11 in North 0.2 mph 3 mph 51.2% 0.00 in 33 W/m2
18:49 79.7 °F 60.2 °F 30.11 in North 0.4 mph 3 mph 51.3% 0.00 in 33 W/m2
18:54 79.5 °F 60.5 °F 30.11 in Calm   3 mph 52.3% 0.00 in 21 W/m2
18:59 79.4 °F 60.4 °F 30.11 in Calm   3 mph 52.3% 0.00 in 21 W/m2
19:04 79.2 °F 60.4 °F 30.11 in Calm   3 mph 52.6% 0.00 in 16 W/m2
19:09 79 °F 60.8 °F 30.11 in NNW 1.2 mph 6 mph 53.7% 0.00 in 16 W/m2
19:14 78.6 °F 60 °F 30.11 in NW 1.4 mph 8 mph 53% 0.00 in 12 W/m2
19:19 78.2 °F 59.7 °F 30.11 in NW 0.4 mph 8 mph 53.1% 0.00 in 12 W/m2
19:24 77.9 °F 59.9 °F 30.11 in NW 0.3 mph 8 mph 54% 0.00 in 11 W/m2
19:29 77.6 °F 59.6 °F 30.11 in Calm   8 mph 54% 0.00 in 7 W/m2
19:34 77.3 °F 59.8 °F 30.11 in Calm   8 mph 54.9% 0.00 in 5 W/m2
19:39 77 °F 59.6 °F 30.12 in Calm   1 mph 55% 0.00 in 0 W/m2
19:44 76.8 °F 59.4 °F 30.12 in Calm   1 mph 55% 0.00 in 0 W/m2
19:49 76.5 °F 59.6 °F 30.12 in Calm   1 mph 55.9% 0.00 in 0 W/m2
19:54 76.2 °F 59.4 °F 30.12 in Calm   1 mph 56% 0.00 in 0 W/m2
19:59 75.9 °F 59.3 °F 30.12 in Calm   1 mph 56.3% 0.00 in 0 W/m2
20:00 75.7 °F 58.9 °F 30.12 in Calm   1 mph 56% 0.00 in 0 W/m2
20:09 75.3 °F 59 °F 30.12 in Calm   1 mph 57% 0.00 in 0 W/m2
20:14 75 °F 59.3 °F 30.12 in Calm   1 mph 58% 0.00 in 0 W/m2
20:19 74.8 °F 59.1 °F 30.12 in Calm   1 mph 58.1% 0.00 in 0 W/m2
20:24 74.6 °F 59.3 °F 30.12 in Calm   1 mph 59% 0.00 in 0 W/m2
20:29 74.4 °F 59.2 °F 30.13 in Calm   1 mph 59.1% 0.00 in 0 W/m2
20:34 74.2 °F 59.4 °F 30.13 in Calm   1 mph 60% 0.00 in 0 W/m2
20:39 74 °F 59.3 °F 30.13 in Calm     60.1% 0.00 in 0 W/m2
20:44 73.8 °F 59.6 °F 30.13 in Calm     61% 0.00 in 0 W/m2
20:49 73.7 °F 59.4 °F 30.13 in Calm     61% 0.00 in 0 W/m2
20:54 73.5 °F 59.2 °F 30.14 in Calm     61% 0.00 in 0 W/m2
20:59 73.3 °F 59.3 °F 30.14 in Calm     61.6% 0.00 in 0 W/m2
21:04 73.1 °F 59.3 °F 30.14 in Calm     62% 0.00 in 0 W/m2
21:09 72.9 °F 59.4 °F 30.15 in Calm     62.6% 0.00 in 0 W/m2
21:14 72.7 °F 59.4 °F 30.15 in Calm     63% 0.00 in 0 W/m2
21:19 72.4 °F 59.3 °F 30.15 in Calm     63.3% 0.00 in 0 W/m2
21:24 72.2 °F 59.3 °F 30.15 in Calm     63.8% 0.00 in 0 W/m2
21:29 72.1 °F 59.2 °F 30.15 in Calm     64% 0.00 in 0 W/m2
21:34 71.9 °F 59 °F 30.15 in NW 0.1 mph 2 mph 64% 0.00 in 0 W/m2
21:39 71.7 °F 58.9 °F 30.15 in NW 0.2 mph 3 mph 63.9% 0.00 in 0 W/m2
21:44 71.6 °F 58.8 °F 30.15 in NW 0.1 mph 3 mph 64% 0.00 in 0 W/m2
21:49 71.4 °F 58.7 °F 30.15 in NW 0.2 mph 3 mph 64.2% 0.00 in 0 W/m2
21:54 71.3 °F 58.5 °F 30.16 in Calm   3 mph 64.1% 0.00 in 0 W/m2
21:59 71.2 °F 58.7 °F 30.16 in Calm   3 mph 64.6% 0.00 in 0 W/m2
22:04 71.1 °F 58.7 °F 30.16 in NW 0.1 mph 3 mph 65% 0.00 in 0 W/m2
22:09 71 °F 58.7 °F 30.16 in Calm   2 mph 65% 0.00 in 0 W/m2
22:14 70.9 °F 58.6 °F 30.16 in NW 0.3 mph 3 mph 65% 0.00 in 0 W/m2
22:19 70.9 °F 58.7 °F 30.16 in Calm   3 mph 65.4% 0.00 in 0 W/m2
22:24 70.8 °F 58.8 °F 30.16 in Calm   3 mph 65.9% 0.00 in 0 W/m2
22:29 70.8 °F 58.5 °F 30.16 in NW 0.1 mph 3 mph 65.2% 0.00 in 0 W/m2
22:34 70.7 °F 58.5 °F 30.16 in NW 1 mph 10 mph 65.3% 0.00 in 0 W/m2
22:39 70.7 °F 58.8 °F 30.16 in NW 0.2 mph 10 mph 66% 0.00 in 0 W/m2
22:44 70.6 °F 58.7 °F 30.16 in Calm   10 mph 65.9% 0.00 in 0 W/m2
22:49 70.5 °F 58.4 °F 30.16 in NW 0.1 mph 10 mph 65.6% 0.00 in 0 W/m2
22:54 70.4 °F 58.5 °F 30.16 in NW 0.1 mph 10 mph 66% 0.00 in 0 W/m2
22:59 70.4 °F 58.5 °F 30.16 in NW 0.1 mph 10 mph 66% 0.00 in 0 W/m2
23:04 70.3 °F 58.4 °F 30.16 in Calm   10 mph 66% 0.00 in 0 W/m2
23:09 70.3 °F 58.4 °F 30.16 in Calm     66% 0.00 in 0 W/m2
23:14 70.2 °F 58.3 °F 30.16 in Calm     66% 0.00 in 0 W/m2
23:19 70.1 °F 58.6 °F 30.16 in Calm     66.9% 0.00 in 0 W/m2
23:24 70 °F 58.6 °F 30.17 in Calm   2 mph 67% 0.00 in 0 W/m2
23:29 69.9 °F 58.5 °F 30.17 in NW 0.4 mph 4 mph 67% 0.00 in 0 W/m2
23:34 69.8 °F 58.7 °F 30.17 in Calm   4 mph 67.7% 0.00 in 0 W/m2
23:39 69.7 °F 58.7 °F 30.17 in Calm     68% 0.00 in 0 W/m2
23:44 69.6 °F 58.6 °F 30.17 in Calm     68% 0.00 in 0 W/m2
23:49 69.5 °F 58.5 °F 30.17 in Calm     68% 0.00 in 0 W/m2
23:54 69.4 °F 58.4 °F 30.17 in Calm     68% 0.00 in 0 W/m2
23:59 69.3 °F 58.4 °F 30.17 in Calm     68.3% 0.00 in 0 W/m2
Hartford County Weather
Compliments of Weather Underground - 4 mb